createdAt,value
2018-01-04T00:00:30.968Z,89.24
2018-01-04T00:01:30.887Z,89.00
2018-01-04T00:02:30.807Z,88.95
2018-01-04T00:03:30.728Z,89.00
2018-01-04T00:04:30.648Z,89.10
2018-01-04T00:05:30.567Z,89.00
2018-01-04T00:06:30.489Z,88.95
2018-01-04T00:07:30.410Z,88.91
2018-01-04T00:08:30.329Z,89.20
2018-01-04T00:09:30.248Z,89.48
2018-01-04T00:10:30.167Z,89.29
2018-01-04T00:11:30.088Z,89.39
2018-01-04T00:12:30.011Z,89.67
2018-01-04T00:13:29.927Z,89.29
2018-01-04T00:14:29.847Z,89.20
2018-01-04T00:15:29.768Z,89.29
2018-01-04T00:16:29.689Z,89.20
2018-01-04T00:17:29.606Z,88.95
2018-01-04T00:18:29.528Z,88.81
2018-01-04T00:19:29.448Z,89.10
2018-01-04T00:20:29.369Z,89.24
2018-01-04T00:21:29.287Z,88.91
2018-01-04T00:22:29.207Z,89.10
2018-01-04T00:23:29.128Z,89.53
2018-01-04T00:24:29.047Z,89.62
2018-01-04T00:25:28.967Z,89.43
2018-01-04T00:26:28.887Z,89.53
2018-01-04T00:27:28.808Z,89.81
2018-01-04T00:28:28.727Z,90.05
2018-01-04T00:29:28.646Z,90.05
2018-01-04T00:30:28.567Z,89.95
2018-01-04T00:31:28.491Z,89.48
2018-01-04T00:32:28.408Z,88.86
2018-01-04T00:33:28.326Z,89.33
2018-01-04T00:34:28.246Z,88.86
2018-01-04T00:35:28.166Z,88.86
2018-01-04T00:36:28.087Z,89.14
2018-01-04T00:37:28.008Z,88.67
2018-01-04T00:38:27.930Z,88.48
2018-01-04T00:39:27.847Z,88.29
2018-01-04T00:40:27.767Z,88.39
2018-01-04T00:41:27.689Z,88.01
2018-01-04T00:42:27.608Z,88.20
2018-01-04T00:43:27.528Z,88.48
2018-01-04T00:44:27.448Z,88.20
2018-01-04T00:45:27.367Z,88.86
2018-01-04T00:46:27.287Z,89.33
2018-01-04T00:47:27.208Z,88.86
2018-01-04T00:48:27.128Z,89.24
2018-01-04T00:49:27.048Z,89.05
2018-01-04T00:50:26.968Z,88.86
2018-01-04T00:51:26.889Z,88.48
2018-01-04T00:52:26.809Z,88.86
2018-01-04T00:53:26.729Z,88.95
2018-01-04T00:54:26.649Z,89.33
2018-01-04T00:55:26.569Z,88.95
2018-01-04T00:56:26.490Z,88.48
2018-01-04T00:57:26.410Z,88.20
2018-01-04T00:58:26.330Z,88.10
2018-01-04T00:59:26.250Z,88.29
2018-01-04T01:00:26.171Z,88.39
2018-01-04T01:01:26.090Z,88.39
2018-01-04T01:02:26.011Z,88.76
2018-01-04T01:03:25.931Z,88.86
2018-01-04T01:04:25.852Z,88.57
2018-01-04T01:05:25.772Z,88.48
2018-01-04T01:06:25.691Z,88.67
2018-01-04T01:07:25.613Z,89.05
2018-01-04T01:08:25.533Z,89.24
2018-01-04T01:09:25.457Z,88.95
2018-01-04T01:10:25.373Z,88.01
2018-01-04T01:11:25.292Z,88.57
2018-01-04T01:12:25.214Z,88.76
2018-01-04T01:13:25.134Z,88.95
2018-01-04T01:14:25.055Z,88.29
2018-01-04T01:15:24.975Z,88.57
2018-01-04T01:16:24.894Z,88.01
2018-01-04T01:17:24.814Z,88.57
2018-01-04T01:18:24.736Z,88.86
2018-01-04T01:19:24.656Z,88.29
2018-01-04T01:20:24.577Z,88.86
2018-01-04T01:21:24.499Z,88.39
2018-01-04T01:22:24.417Z,88.48
2018-01-04T01:23:24.337Z,87.72
2018-01-04T01:24:24.257Z,87.72
2018-01-04T01:25:24.176Z,88.20
2018-01-04T01:26:24.096Z,88.20
2018-01-04T01:27:24.017Z,87.82
2018-01-04T01:28:23.938Z,88.86
2018-01-04T01:29:23.857Z,88.20
2018-01-04T01:30:23.778Z,88.20
2018-01-04T01:31:23.698Z,88.10
2018-01-04T01:32:23.619Z,88.39
2018-01-04T01:33:23.537Z,88.29
2018-01-04T01:34:23.458Z,88.20
2018-01-04T01:35:23.378Z,88.20
2018-01-04T01:36:23.299Z,88.10
2018-01-04T01:37:23.218Z,88.39
2018-01-04T01:38:23.138Z,88.81
2018-01-04T01:39:23.060Z,88.29
2018-01-04T01:40:22.978Z,88.62
2018-01-04T01:41:22.899Z,88.81
2018-01-04T01:42:22.818Z,88.91
2018-01-04T01:43:22.739Z,89.24
2018-01-04T01:44:22.659Z,88.81
2018-01-04T01:45:22.579Z,89.20
2018-01-04T01:46:22.498Z,89.58
2018-01-04T01:47:22.419Z,88.72
2018-01-04T01:48:22.339Z,88.91
2018-01-04T01:49:22.260Z,88.81
2018-01-04T01:50:22.178Z,89.29
2018-01-04T01:51:22.098Z,89.39
2018-01-04T01:52:22.019Z,89.29
2018-01-04T01:53:21.938Z,90.24
2018-01-04T01:54:21.858Z,89.20
2018-01-04T01:55:21.779Z,89.86
2018-01-04T01:56:21.699Z,89.95
2018-01-04T01:57:21.619Z,89.95
2018-01-04T01:58:21.540Z,89.29
2018-01-04T01:59:21.459Z,89.29
2018-01-04T02:00:21.380Z,89.48
2018-01-04T02:01:21.298Z,90.14
2018-01-04T02:02:21.219Z,89.48
2018-01-04T02:03:21.140Z,89.67
2018-01-04T02:04:21.061Z,89.29
2018-01-04T02:05:21.015Z,89.29
2018-01-04T02:06:20.899Z,88.81
2018-01-04T02:07:20.818Z,89.10
2018-01-04T02:08:20.738Z,89.10
2018-01-04T02:09:20.659Z,89.39
2018-01-04T02:10:20.579Z,89.48
2018-01-04T02:11:20.498Z,89.76
2018-01-04T02:12:20.419Z,89.39
2018-01-04T02:13:20.339Z,89.58
2018-01-04T02:14:20.258Z,89.86
2018-01-04T02:15:20.179Z,89.39
2018-01-04T02:16:20.101Z,89.95
2018-01-04T02:17:20.019Z,89.29
2018-01-04T02:18:19.939Z,89.76
2018-01-04T02:19:19.861Z,89.39
2018-01-04T02:20:19.779Z,89.24
2018-01-04T02:21:19.699Z,89.62
2018-01-04T02:22:19.620Z,89.53
2018-01-04T02:23:19.541Z,90.09
2018-01-04T02:24:19.463Z,89.48
2018-01-04T02:25:19.382Z,89.43
2018-01-04T02:26:19.302Z,89.43
2018-01-04T02:27:19.222Z,89.33
2018-01-04T02:28:19.142Z,89.05
2018-01-04T02:29:19.060Z,88.76
2018-01-04T02:30:18.981Z,89.05
2018-01-04T02:31:18.902Z,89.43
2018-01-04T02:32:18.823Z,90.09
2018-01-04T02:33:18.743Z,89.53
2018-01-04T02:34:18.662Z,89.81
2018-01-04T02:35:18.584Z,89.14
2018-01-04T02:36:18.506Z,90.00
2018-01-04T02:37:18.424Z,89.90
2018-01-04T02:38:18.344Z,90.00
2018-01-04T02:39:18.265Z,90.85
2018-01-04T02:40:18.185Z,91.94
2018-01-04T02:41:18.103Z,92.66
2018-01-04T02:42:18.025Z,92.42
2018-01-04T02:43:17.944Z,93.18
2018-01-04T02:44:17.865Z,93.37
2018-01-04T02:45:17.784Z,94.42
2018-01-04T02:46:17.711Z,94.32
2018-01-04T02:47:17.626Z,94.70
2018-01-04T02:48:17.546Z,95.46
2018-01-04T02:49:17.464Z,95.84
2018-01-04T02:50:17.384Z,96.41
2018-01-04T02:51:17.304Z,96.59
2018-01-04T02:52:17.224Z,97.45
2018-01-04T02:53:17.144Z,97.69
2018-01-04T02:54:17.063Z,98.16
2018-01-04T02:55:16.983Z,98.16
2018-01-04T02:56:16.905Z,98.92
2018-01-04T02:57:16.824Z,98.44
2018-01-04T02:58:16.743Z,98.63
2018-01-04T02:59:16.663Z,98.92
2018-01-04T03:00:16.583Z,98.92
2018-01-04T03:01:16.504Z,99.96
2018-01-04T03:02:16.422Z,99.99
2018-01-04T03:03:16.342Z,99.87
2018-01-04T03:04:16.264Z,99.99
2018-01-04T03:05:16.182Z,99.99
2018-01-04T03:06:16.104Z,98.82
2018-01-04T03:07:16.025Z,98.87
2018-01-04T03:08:15.944Z,98.68
2018-01-04T03:09:15.863Z,98.78
2018-01-04T03:10:15.783Z,98.87
2018-01-04T03:11:15.702Z,97.83
2018-01-04T03:12:15.623Z,97.92
2018-01-04T03:13:15.543Z,98.49
2018-01-04T03:14:15.462Z,99.35
2018-01-04T03:15:15.384Z,98.97
2018-01-04T03:16:15.303Z,98.30
2018-01-04T03:17:15.224Z,98.11
2018-01-04T03:18:15.143Z,98.49
2018-01-04T03:19:15.067Z,98.30
2018-01-04T03:20:14.984Z,98.87
2018-01-04T03:21:14.903Z,98.97
2018-01-04T03:22:14.823Z,98.97
2018-01-04T03:23:14.748Z,98.68
2018-01-04T03:24:14.666Z,98.40
2018-01-04T03:25:14.583Z,98.30
2018-01-04T03:26:14.502Z,98.87
2018-01-04T03:27:14.426Z,98.59
2018-01-04T03:28:14.350Z,98.59
2018-01-04T03:29:14.262Z,98.40
2018-01-04T03:30:14.184Z,98.87
2018-01-04T03:31:14.102Z,98.97
2018-01-04T03:32:14.023Z,99.16
2018-01-04T03:33:13.941Z,98.02
2018-01-04T03:34:13.862Z,98.68
2018-01-04T03:35:13.782Z,98.68
2018-01-04T03:36:13.709Z,98.40
2018-01-04T03:37:13.621Z,98.87
2018-01-04T03:38:13.541Z,98.87
2018-01-04T03:39:13.461Z,98.49
2018-01-04T03:40:13.382Z,98.21
2018-01-04T03:41:13.300Z,97.92
2018-01-04T03:42:13.221Z,97.74
2018-01-04T03:43:13.142Z,98.21
2018-01-04T03:44:13.066Z,98.49
2018-01-04T03:45:12.980Z,98.40
2018-01-04T03:46:12.901Z,98.87
2018-01-04T03:47:12.820Z,99.16
2018-01-04T03:48:12.741Z,98.40
2018-01-04T03:49:12.660Z,97.83
2018-01-04T03:50:12.582Z,97.74
2018-01-04T03:51:12.502Z,97.45
2018-01-04T03:52:12.426Z,96.69
2018-01-04T03:53:12.340Z,96.88
2018-01-04T03:54:12.260Z,97.17
2018-01-04T03:55:12.180Z,97.74
2018-01-04T03:56:12.100Z,98.11
2018-01-04T03:57:12.020Z,97.92
2018-01-04T03:58:11.939Z,98.02
2018-01-04T03:59:11.858Z,97.92
2018-01-04T04:00:11.779Z,98.68
2018-01-04T04:01:11.699Z,98.68
2018-01-04T04:02:11.619Z,98.87
2018-01-04T04:03:11.539Z,97.74
2018-01-04T04:04:11.460Z,97.83
2018-01-04T04:05:11.380Z,97.74
2018-01-04T04:06:11.299Z,97.92
2018-01-04T04:07:11.219Z,97.83
2018-01-04T04:08:11.138Z,97.64
2018-01-04T04:09:11.059Z,98.02
2018-01-04T04:10:10.979Z,97.07
2018-01-04T04:11:10.899Z,97.74
2018-01-04T04:12:10.820Z,98.11
2018-01-04T04:13:10.739Z,98.21
2018-01-04T04:14:10.660Z,98.21
2018-01-04T04:15:10.580Z,98.78
2018-01-04T04:16:10.500Z,98.97
2018-01-04T04:17:10.420Z,98.68
2018-01-04T04:18:10.340Z,99.06
2018-01-04T04:19:10.260Z,99.06
2018-01-04T04:20:10.182Z,99.16
2018-01-04T04:21:10.100Z,98.78
2018-01-04T04:22:10.021Z,98.59
2018-01-04T04:23:09.941Z,98.68
2018-01-04T04:24:09.864Z,98.97
2018-01-04T04:25:09.783Z,98.78
2018-01-04T04:26:09.702Z,98.87
2018-01-04T04:27:09.622Z,98.40
2018-01-04T04:28:09.543Z,98.68
2018-01-04T04:29:09.462Z,98.97
2018-01-04T04:30:09.382Z,98.59
2018-01-04T04:31:09.303Z,98.68
2018-01-04T04:32:09.224Z,98.30
2018-01-04T04:33:09.144Z,97.36
2018-01-04T04:34:09.064Z,97.55
2018-01-04T04:35:08.984Z,97.55
2018-01-04T04:36:08.905Z,97.74
2018-01-04T04:37:08.825Z,97.17
2018-01-04T04:38:08.745Z,97.07
2018-01-04T04:39:08.666Z,97.55
2018-01-04T04:40:08.586Z,97.36
2018-01-04T04:41:08.507Z,96.88
2018-01-04T04:42:08.427Z,96.31
2018-01-04T04:43:08.347Z,96.12
2018-01-04T04:44:08.267Z,95.46
2018-01-04T04:45:08.187Z,95.65
2018-01-04T04:46:08.109Z,95.46
2018-01-04T04:47:08.033Z,94.93
2018-01-04T04:48:07.949Z,95.03
2018-01-04T04:49:07.869Z,94.93
2018-01-04T04:50:07.790Z,94.74
2018-01-04T04:51:07.712Z,94.74
2018-01-04T04:52:07.632Z,94.46
2018-01-04T04:53:07.551Z,95.22
2018-01-04T04:54:07.472Z,95.46
2018-01-04T04:55:07.392Z,95.89
2018-01-04T04:56:07.316Z,95.46
2018-01-04T04:57:07.233Z,94.89
2018-01-04T04:58:07.160Z,94.98
2018-01-04T04:59:07.074Z,94.93
2018-01-04T05:00:06.996Z,95.84
2018-01-04T05:01:06.915Z,96.03
2018-01-04T05:02:06.841Z,96.41
2018-01-04T05:03:06.755Z,96.59
2018-01-04T05:04:06.676Z,96.31
2018-01-04T05:05:06.596Z,96.31
2018-01-04T05:06:06.516Z,96.03
2018-01-04T05:07:06.438Z,96.41
2018-01-04T05:08:06.358Z,96.22
2018-01-04T05:09:06.277Z,96.88
2018-01-04T05:10:06.198Z,97.26
2018-01-04T05:11:06.118Z,97.64
2018-01-04T05:12:06.039Z,97.64
2018-01-04T05:13:05.959Z,97.74
2018-01-04T05:14:05.880Z,97.92
2018-01-04T05:15:05.800Z,97.74
2018-01-04T05:16:05.720Z,97.74
2018-01-04T05:17:05.640Z,97.07
2018-01-04T05:18:05.561Z,96.41
2018-01-04T05:19:05.481Z,96.41
2018-01-04T05:20:05.402Z,96.97
2018-01-04T05:21:05.323Z,97.07
2018-01-04T05:22:05.242Z,96.97
2018-01-04T05:23:05.163Z,96.97
2018-01-04T05:24:05.083Z,97.92
2018-01-04T05:25:05.007Z,96.69
2018-01-04T05:26:04.923Z,96.69
2018-01-04T05:27:04.844Z,96.69
2018-01-04T05:28:04.764Z,96.22
2018-01-04T05:29:04.684Z,95.65
2018-01-04T05:30:04.606Z,95.55
2018-01-04T05:31:04.526Z,95.84
2018-01-04T05:32:04.449Z,95.84
2018-01-04T05:33:04.366Z,95.93
2018-01-04T05:34:04.287Z,96.03
2018-01-04T05:35:04.211Z,96.22
2018-01-04T05:36:04.129Z,96.59
2018-01-04T05:37:04.048Z,95.17
2018-01-04T05:38:03.970Z,95.46
2018-01-04T05:39:03.890Z,94.89
2018-01-04T05:40:03.811Z,94.89
2018-01-04T05:41:03.730Z,95.65
2018-01-04T05:42:03.651Z,94.70
2018-01-04T05:43:03.572Z,95.17
2018-01-04T05:44:03.492Z,95.46
2018-01-04T05:45:03.411Z,95.27
2018-01-04T05:46:03.337Z,95.46
2018-01-04T05:47:03.257Z,94.70
2018-01-04T05:48:03.174Z,94.32
2018-01-04T05:49:03.093Z,94.32
2018-01-04T05:50:03.014Z,94.70
2018-01-04T05:51:02.935Z,94.89
2018-01-04T05:52:02.856Z,94.89
2018-01-04T05:53:02.775Z,93.94
2018-01-04T05:54:02.696Z,94.13
2018-01-04T05:55:02.616Z,94.42
2018-01-04T05:56:02.537Z,94.89
2018-01-04T05:57:02.456Z,94.98
2018-01-04T05:58:02.378Z,94.51
2018-01-04T05:59:02.298Z,94.32
2018-01-04T06:00:02.218Z,94.60
2018-01-04T06:01:02.139Z,94.32
2018-01-04T06:02:02.058Z,94.03
2018-01-04T06:03:01.980Z,94.60
2018-01-04T06:04:01.899Z,94.23
2018-01-04T06:05:01.819Z,94.32
2018-01-04T06:06:01.740Z,95.17
2018-01-04T06:07:01.660Z,95.07
2018-01-04T06:08:01.581Z,94.98
2018-01-04T06:09:01.513Z,94.70
2018-01-04T06:10:01.420Z,94.79
2018-01-04T06:11:01.340Z,95.36
2018-01-04T06:12:01.262Z,95.27
2018-01-04T06:13:01.181Z,95.65
2018-01-04T06:14:01.102Z,95.65
2018-01-04T06:15:01.022Z,94.42
2018-01-04T06:16:00.943Z,94.98
2018-01-04T06:17:00.862Z,95.07
2018-01-04T06:18:00.783Z,95.36
2018-01-04T06:19:00.703Z,94.98
2018-01-04T06:20:00.623Z,95.65
2018-01-04T06:21:00.543Z,95.74
2018-01-04T06:22:00.462Z,94.79
2018-01-04T06:23:00.384Z,94.70
2018-01-04T06:24:00.306Z,94.70
2018-01-04T06:25:00.225Z,94.79
2018-01-04T06:26:00.145Z,94.70
2018-01-04T06:27:00.066Z,94.98
2018-01-04T06:27:59.985Z,95.07
2018-01-04T06:28:59.906Z,94.98
2018-01-04T06:29:59.826Z,94.51
2018-01-04T06:30:59.747Z,94.23
2018-01-04T06:31:59.668Z,94.13
2018-01-04T06:32:59.588Z,94.60
2018-01-04T06:33:59.509Z,94.42
2018-01-04T06:34:59.428Z,94.60
2018-01-04T06:35:59.350Z,95.07
2018-01-04T06:36:59.269Z,94.60
2018-01-04T06:37:59.189Z,94.60
2018-01-04T06:38:59.110Z,94.89
2018-01-04T06:39:59.030Z,94.23
2018-01-04T06:40:58.950Z,93.94
2018-01-04T06:41:58.870Z,94.03
2018-01-04T06:42:58.791Z,94.79
2018-01-04T06:43:58.712Z,94.70
2018-01-04T06:44:58.631Z,94.70
2018-01-04T06:45:58.551Z,95.07
2018-01-04T06:46:58.472Z,94.60
2018-01-04T06:47:58.392Z,94.98
2018-01-04T06:48:58.311Z,94.98
2018-01-04T06:49:58.232Z,95.46
2018-01-04T06:50:58.153Z,95.46
2018-01-04T06:51:58.073Z,95.55
2018-01-04T06:52:57.992Z,95.46
2018-01-04T06:53:57.912Z,95.17
2018-01-04T06:54:57.833Z,95.36
2018-01-04T06:55:57.752Z,95.65
2018-01-04T06:56:57.674Z,95.74
2018-01-04T06:57:57.592Z,95.55
2018-01-04T06:58:57.511Z,95.46
2018-01-04T06:59:57.433Z,95.74
2018-01-04T07:00:57.353Z,94.89
2018-01-04T07:01:57.276Z,94.89
2018-01-04T07:02:57.194Z,95.46
2018-01-04T07:03:57.114Z,95.65
2018-01-04T07:04:57.034Z,95.27
2018-01-04T07:05:56.954Z,95.55
2018-01-04T07:06:56.875Z,95.55
2018-01-04T07:07:56.839Z,95.74
2018-01-04T07:08:56.715Z,95.93
2018-01-04T07:09:56.634Z,95.36
2018-01-04T07:10:56.555Z,95.27
2018-01-04T07:11:56.476Z,95.74
2018-01-04T07:12:56.396Z,95.65
2018-01-04T07:13:56.315Z,95.55
2018-01-04T07:14:56.237Z,95.65
2018-01-04T07:15:56.156Z,95.07
2018-01-04T07:16:56.075Z,95.65
2018-01-04T07:17:55.996Z,95.46
2018-01-04T07:18:55.916Z,95.36
2018-01-04T07:19:55.836Z,95.17
2018-01-04T07:20:55.758Z,94.51
2018-01-04T07:21:55.677Z,94.98
2018-01-04T07:22:55.597Z,94.51
2018-01-04T07:23:55.518Z,94.32
2018-01-04T07:24:55.441Z,94.32
2018-01-04T07:25:55.358Z,94.42
2018-01-04T07:26:55.278Z,94.32
2018-01-04T07:27:55.199Z,94.32
2018-01-04T07:28:55.125Z,94.70
2018-01-04T07:29:55.040Z,94.98
2018-01-04T07:30:54.960Z,95.17
2018-01-04T07:31:54.880Z,95.07
2018-01-04T07:32:54.800Z,94.03
2018-01-04T07:33:54.719Z,94.03
2018-01-04T07:34:54.640Z,94.23
2018-01-04T07:35:54.561Z,94.32
2018-01-04T07:36:54.480Z,94.32
2018-01-04T07:37:54.401Z,93.94
2018-01-04T07:38:54.321Z,94.03
2018-01-04T07:39:54.242Z,94.13
2018-01-04T07:40:54.162Z,94.23
2018-01-04T07:41:54.082Z,94.23
2018-01-04T07:42:54.002Z,93.56
2018-01-04T07:43:53.925Z,93.84
2018-01-04T07:44:53.843Z,94.51
2018-01-04T07:45:53.763Z,94.13
2018-01-04T07:46:53.683Z,93.75
2018-01-04T07:47:53.607Z,94.13
2018-01-04T07:48:53.522Z,94.23
2018-01-04T07:49:53.443Z,93.65
2018-01-04T07:50:53.364Z,93.46
2018-01-04T07:51:53.284Z,93.65
2018-01-04T07:52:53.203Z,94.51
2018-01-04T07:53:53.124Z,93.75
2018-01-04T07:54:53.044Z,93.27
2018-01-04T07:55:52.966Z,93.56
2018-01-04T07:56:52.884Z,94.03
2018-01-04T07:57:52.805Z,94.42
2018-01-04T07:58:52.726Z,94.32
2018-01-04T07:59:52.646Z,94.13
2018-01-04T08:00:52.581Z,94.13
2018-01-04T08:01:52.486Z,93.65
2018-01-04T08:02:52.406Z,93.84
2018-01-04T08:03:52.327Z,94.32
2018-01-04T08:04:52.246Z,94.51
2018-01-04T08:05:52.168Z,94.79
2018-01-04T08:06:52.089Z,94.79
2018-01-04T08:07:52.009Z,94.51
2018-01-04T08:08:51.928Z,94.89
2018-01-04T08:09:51.857Z,94.89
2018-01-04T08:10:51.770Z,95.65
2018-01-04T08:11:51.693Z,95.55
2018-01-04T08:12:51.610Z,95.46
2018-01-04T08:13:51.532Z,95.46
2018-01-04T08:14:51.452Z,95.74
2018-01-04T08:15:51.373Z,96.31
2018-01-04T08:16:51.292Z,96.03
2018-01-04T08:17:51.214Z,96.88
2018-01-04T08:18:51.135Z,96.88
2018-01-04T08:19:51.056Z,97.64
2018-01-04T08:20:50.976Z,98.02
2018-01-04T08:21:50.897Z,97.74
2018-01-04T08:22:50.817Z,99.16
2018-01-04T08:23:50.739Z,99.26
2018-01-04T08:24:50.659Z,99.82
2018-01-04T08:25:50.580Z,99.82
2018-01-04T08:26:50.500Z,99.99
2018-01-04T08:27:50.421Z,99.99
2018-01-04T08:28:50.342Z,99.99
2018-01-04T08:29:50.265Z,99.99
2018-01-04T08:30:50.185Z,99.99
2018-01-04T08:31:50.105Z,99.99
2018-01-04T08:32:50.028Z,99.99
2018-01-04T08:33:49.946Z,99.99
2018-01-04T08:34:49.867Z,99.99
2018-01-04T08:35:49.789Z,99.99
2018-01-04T08:36:49.745Z,99.99
2018-01-04T08:37:49.630Z,99.99
2018-01-04T08:38:49.551Z,99.99
2018-01-04T08:39:49.472Z,99.99
2018-01-04T08:40:49.392Z,99.99
2018-01-04T08:41:49.313Z,99.99
2018-01-04T08:42:49.234Z,99.99
2018-01-04T08:43:49.166Z,99.99
2018-01-04T08:44:49.075Z,99.99
2018-01-04T08:45:48.996Z,99.99
2018-01-04T08:46:48.918Z,99.99
2018-01-04T08:47:48.842Z,99.99
2018-01-04T08:48:48.759Z,99.99
2018-01-04T08:49:48.681Z,99.99
2018-01-04T08:50:48.600Z,99.99
2018-01-04T08:51:48.522Z,99.99
2018-01-04T08:52:48.442Z,99.99
2018-01-04T08:53:48.363Z,99.99
2018-01-04T08:54:48.284Z,99.99
2018-01-04T08:55:48.205Z,99.99
2018-01-04T08:56:48.124Z,99.99
2018-01-04T08:57:48.045Z,99.99
2018-01-04T08:58:47.966Z,99.99
2018-01-04T08:59:47.888Z,99.99
2018-01-04T09:00:47.814Z,99.99
2018-01-04T09:01:47.728Z,99.99
2018-01-04T09:02:47.648Z,99.99
2018-01-04T09:03:47.571Z,99.99
2018-01-04T09:04:47.491Z,99.99
2018-01-04T09:05:47.412Z,99.99
2018-01-04T09:06:47.331Z,99.99
2018-01-04T09:07:47.253Z,99.99
2018-01-04T09:08:47.172Z,99.99
2018-01-04T09:09:47.093Z,99.99
2018-01-04T09:10:47.015Z,99.99
2018-01-04T09:11:46.935Z,99.99
2018-01-04T09:12:46.856Z,99.99
2018-01-04T09:13:46.776Z,99.99
2018-01-04T09:14:46.697Z,99.99
2018-01-04T09:15:46.618Z,99.99
2018-01-04T09:16:46.538Z,99.99
2018-01-04T09:17:46.459Z,99.99
2018-01-04T09:18:46.380Z,99.99
2018-01-04T09:19:46.300Z,99.99
2018-01-04T09:20:46.221Z,99.99
2018-01-04T09:21:46.141Z,99.99
2018-01-04T09:22:46.061Z,99.99
2018-01-04T09:23:45.983Z,99.99
2018-01-04T09:24:45.903Z,99.99
2018-01-04T09:25:45.826Z,99.99
2018-01-04T09:26:45.745Z,99.99
2018-01-04T09:27:45.667Z,99.99
2018-01-04T09:28:45.587Z,99.99
2018-01-04T09:29:45.507Z,99.99
2018-01-04T09:30:45.428Z,99.99
2018-01-04T09:31:45.350Z,99.99
2018-01-04T09:32:45.269Z,99.99
2018-01-04T09:33:45.190Z,99.99
2018-01-04T09:34:45.112Z,99.99
2018-01-04T09:35:45.032Z,99.99
2018-01-04T09:36:44.951Z,99.99
2018-01-04T09:37:44.873Z,99.99
2018-01-04T09:38:44.794Z,99.99
2018-01-04T09:39:44.716Z,99.99
2018-01-04T09:40:44.634Z,99.99
2018-01-04T09:41:44.556Z,99.99
2018-01-04T09:42:44.477Z,99.99
2018-01-04T09:43:44.398Z,99.99
2018-01-04T09:44:44.317Z,99.99
2018-01-04T09:45:44.240Z,99.99
2018-01-04T09:46:44.160Z,99.99
2018-01-04T09:47:44.081Z,99.99
2018-01-04T09:48:44.002Z,99.99
2018-01-04T09:49:43.922Z,99.99
2018-01-04T09:50:43.843Z,99.99
2018-01-04T09:51:43.764Z,99.99
2018-01-04T09:52:43.684Z,99.99
2018-01-04T09:53:43.606Z,99.99
2018-01-04T09:54:43.527Z,99.99
2018-01-04T09:55:43.448Z,99.99
2018-01-04T09:56:43.373Z,99.99
2018-01-04T09:57:43.289Z,99.99
2018-01-04T09:58:43.210Z,99.99
2018-01-04T09:59:43.134Z,99.99
2018-01-04T10:00:43.052Z,99.99
2018-01-04T10:01:42.972Z,99.99
2018-01-04T10:02:42.893Z,99.99
2018-01-04T10:03:42.815Z,99.99
2018-01-04T10:04:42.738Z,99.99
2018-01-04T10:05:42.656Z,99.99
2018-01-04T10:06:42.577Z,99.99
2018-01-04T10:07:42.499Z,99.99
2018-01-04T10:08:42.417Z,99.99
2018-01-04T10:09:42.339Z,99.99
2018-01-04T10:10:42.261Z,99.99
2018-01-04T10:11:42.181Z,99.99
2018-01-04T10:12:42.106Z,99.99
2018-01-04T10:13:42.022Z,99.99
2018-01-04T10:14:41.945Z,99.99
2018-01-04T10:15:41.865Z,99.99
2018-01-04T10:16:41.785Z,99.99
2018-01-04T10:17:41.733Z,99.99
2018-01-04T10:18:41.627Z,99.99
2018-01-04T10:19:41.548Z,99.99
2018-01-04T10:20:41.470Z,99.99
2018-01-04T10:21:41.392Z,99.99
2018-01-04T10:22:41.311Z,99.99
2018-01-04T10:23:41.233Z,99.99
2018-01-04T10:24:41.153Z,99.99
2018-01-04T10:25:41.074Z,99.99
2018-01-04T10:26:40.996Z,99.99
2018-01-04T10:27:40.918Z,99.99
2018-01-04T10:28:40.839Z,99.99
2018-01-04T10:29:40.759Z,99.99
2018-01-04T10:30:40.680Z,99.99
2018-01-04T10:31:40.604Z,99.99
2018-01-04T10:32:40.527Z,99.99
2018-01-04T10:33:40.445Z,99.99
2018-01-04T10:34:40.368Z,99.99
2018-01-04T10:35:40.288Z,99.99
2018-01-04T10:36:40.209Z,99.99
2018-01-04T10:37:40.130Z,99.99
2018-01-04T10:38:40.053Z,99.99
2018-01-04T10:39:39.974Z,99.99
2018-01-04T10:40:39.894Z,99.99
2018-01-04T10:41:39.816Z,99.99
2018-01-04T10:42:39.738Z,99.99
2018-01-04T10:43:39.660Z,99.99
2018-01-04T10:44:39.581Z,99.99
2018-01-04T10:45:39.502Z,99.99
2018-01-04T10:46:39.429Z,99.99
2018-01-04T10:47:39.347Z,99.99
2018-01-04T10:48:39.266Z,99.99
2018-01-04T10:49:39.192Z,99.99
2018-01-04T10:50:39.110Z,99.99
2018-01-04T10:51:39.031Z,99.99
2018-01-04T10:52:38.952Z,99.99
2018-01-04T10:53:38.874Z,99.99
2018-01-04T10:54:38.796Z,99.99
2018-01-04T10:55:38.717Z,99.99
2018-01-04T10:56:38.637Z,99.99
2018-01-04T10:57:38.560Z,99.99
2018-01-04T10:58:38.483Z,99.99
2018-01-04T10:59:38.405Z,99.99
2018-01-04T11:00:38.326Z,99.99
2018-01-04T11:01:38.247Z,99.99
2018-01-04T11:02:38.168Z,99.99
2018-01-04T11:03:38.091Z,99.99
2018-01-04T11:04:38.013Z,99.99
2018-01-04T11:05:37.935Z,99.99
2018-01-04T11:06:37.857Z,99.99
2018-01-04T11:07:37.779Z,99.99
2018-01-04T11:08:37.701Z,99.99
2018-01-04T11:09:37.623Z,99.99
2018-01-04T11:10:37.545Z,99.99
2018-01-04T11:11:37.468Z,99.99
2018-01-04T11:12:37.389Z,99.99
2018-01-04T11:13:37.313Z,99.99
2018-01-04T11:14:37.234Z,99.99
2018-01-04T11:15:37.156Z,99.99
2018-01-04T11:16:37.078Z,99.99
2018-01-04T11:17:37.001Z,99.99
2018-01-04T11:18:36.923Z,99.99
2018-01-04T11:19:36.846Z,99.99
2018-01-04T11:20:36.766Z,99.99
2018-01-04T11:21:36.690Z,99.99
2018-01-04T11:22:36.611Z,99.99
2018-01-04T11:23:36.534Z,99.99
2018-01-04T11:24:36.455Z,99.99
2018-01-04T11:25:36.377Z,99.99
2018-01-04T11:26:36.301Z,99.99
2018-01-04T11:27:36.222Z,99.99
2018-01-04T11:28:36.144Z,99.99
2018-01-04T11:29:36.065Z,99.99
2018-01-04T11:30:35.988Z,99.99
2018-01-04T11:31:35.910Z,99.99
2018-01-04T11:32:35.832Z,99.99
2018-01-04T11:33:35.754Z,99.99
2018-01-04T11:34:35.676Z,99.99
2018-01-04T11:35:35.600Z,99.99
2018-01-04T11:36:35.520Z,99.99
2018-01-04T11:37:35.443Z,99.99
2018-01-04T11:38:35.368Z,99.99
2018-01-04T11:39:35.287Z,99.99
2018-01-04T11:40:35.210Z,99.99
2018-01-04T11:41:35.130Z,99.99
2018-01-04T11:42:35.053Z,99.99
2018-01-04T11:43:34.975Z,99.99
2018-01-04T11:44:34.896Z,99.99
2018-01-04T11:45:34.819Z,99.99
2018-01-04T11:46:34.742Z,99.99
2018-01-04T11:47:34.663Z,99.99
2018-01-04T11:48:34.584Z,99.99
2018-01-04T11:49:34.506Z,99.99
2018-01-04T11:50:34.429Z,99.99
2018-01-04T11:51:34.351Z,99.99
2018-01-04T11:52:34.273Z,99.99
2018-01-04T11:53:34.196Z,99.99
2018-01-04T11:54:34.117Z,99.99
2018-01-04T11:55:34.040Z,99.99
2018-01-04T11:56:33.960Z,99.99
2018-01-04T11:57:33.884Z,99.99
2018-01-04T11:58:33.806Z,99.99
2018-01-04T11:59:33.729Z,99.99
2018-01-04T12:00:33.650Z,99.99
2018-01-04T12:01:33.573Z,99.99
2018-01-04T12:02:33.495Z,99.99
2018-01-04T12:03:33.418Z,99.99
2018-01-04T12:04:33.339Z,99.99
2018-01-04T12:05:33.263Z,99.99
2018-01-04T12:06:33.185Z,99.99
2018-01-04T12:07:33.110Z,99.99
2018-01-04T12:08:33.029Z,99.99
2018-01-04T12:09:32.952Z,99.99
2018-01-04T12:10:32.875Z,99.99
2018-01-04T12:11:32.797Z,99.99
2018-01-04T12:12:32.724Z,99.99
2018-01-04T12:13:32.643Z,99.99
2018-01-04T12:14:32.565Z,99.99
2018-01-04T12:15:32.487Z,99.99
2018-01-04T12:16:32.410Z,99.99
2018-01-04T12:17:32.333Z,99.99
2018-01-04T12:18:32.255Z,99.99
2018-01-04T12:19:32.178Z,99.99
2018-01-04T12:20:32.101Z,99.99
2018-01-04T12:21:32.023Z,99.99
2018-01-04T12:22:31.946Z,99.99
2018-01-04T12:23:31.869Z,99.99
2018-01-04T12:24:31.791Z,99.99
2018-01-04T12:25:31.715Z,99.99
2018-01-04T12:26:31.637Z,99.99
2018-01-04T12:27:31.560Z,99.99
2018-01-04T12:28:31.481Z,99.99
2018-01-04T12:29:31.404Z,99.99
2018-01-04T12:30:31.328Z,99.99
2018-01-04T12:31:31.250Z,99.99
2018-01-04T12:32:31.172Z,99.99
2018-01-04T12:33:31.100Z,99.99
2018-01-04T12:34:31.019Z,99.99
2018-01-04T12:35:30.941Z,99.99
2018-01-04T12:36:30.862Z,99.99
2018-01-04T12:37:30.785Z,99.99
2018-01-04T12:38:30.708Z,99.99
2018-01-04T12:39:30.631Z,99.99
2018-01-04T12:40:30.554Z,99.99
2018-01-04T12:41:30.476Z,99.99
2018-01-04T12:42:30.398Z,99.99
2018-01-04T12:43:30.322Z,99.99
2018-01-04T12:44:30.242Z,99.99
2018-01-04T12:45:30.168Z,99.99
2018-01-04T12:46:30.088Z,99.99
2018-01-04T12:47:30.011Z,99.99
2018-01-04T12:48:29.932Z,99.99
2018-01-04T12:49:29.860Z,99.99
2018-01-04T12:50:29.777Z,99.99
2018-01-04T12:51:29.701Z,99.99